createdAt,value
2018-04-02T00:01:39.286Z,8.27
2018-04-02T00:04:06.842Z,14.03
2018-04-02T00:06:35.180Z,9.80
2018-04-02T00:09:04.380Z,9.30
2018-04-02T00:11:31.984Z,9.33
2018-04-02T00:13:59.589Z,8.50
2018-04-02T00:16:27.215Z,9.23
2018-04-02T00:18:54.826Z,8.80
2018-04-02T00:21:22.428Z,6.97
2018-04-02T00:23:50.032Z,11.27
2018-04-02T00:26:17.620Z,8.63
2018-04-02T00:28:45.968Z,10.50
2018-04-02T00:31:14.118Z,8.67
2018-04-02T00:33:41.704Z,9.00
2018-04-02T00:36:09.295Z,10.50
2018-04-02T00:38:36.914Z,11.50
2018-04-02T00:41:04.520Z,10.30
2018-04-02T00:43:32.860Z,9.67
2018-04-02T00:46:00.425Z,9.40
2018-04-02T00:48:27.999Z,9.17
2018-04-02T00:50:55.565Z,9.13
2018-04-02T00:53:23.951Z,9.63
2018-04-02T00:55:51.529Z,9.13
2018-04-02T00:58:19.146Z,7.53
2018-04-02T01:00:46.703Z,8.87
2018-04-02T01:03:15.209Z,8.63
2018-04-02T01:05:42.787Z,7.30
2018-04-02T01:08:11.143Z,9.63
2018-04-02T01:10:39.479Z,9.43
2018-04-02T01:13:07.077Z,10.73
2018-04-02T01:15:35.413Z,9.50
2018-04-02T01:18:02.975Z,8.30
2018-04-02T01:20:31.351Z,10.93
2018-04-02T01:22:58.914Z,7.20
2018-04-02T01:25:26.475Z,8.50
2018-04-02T01:27:54.070Z,10.00
2018-04-02T01:30:21.663Z,9.33
2018-04-02T01:32:50.000Z,8.50
2018-04-02T01:35:17.555Z,7.40
2018-04-02T01:37:45.129Z,6.70
2018-04-02T01:40:12.704Z,8.40
2018-04-02T01:42:41.096Z,7.80
2018-04-02T01:45:09.442Z,7.17
2018-04-02T01:47:37.050Z,8.30
2018-04-02T01:50:04.661Z,10.93
2018-04-02T01:52:32.256Z,8.90
2018-04-02T01:55:00.577Z,9.10
2018-04-02T01:57:28.180Z,11.07
2018-04-02T01:59:56.589Z,8.90
2018-04-02T02:02:24.249Z,7.73
2018-04-02T02:04:51.861Z,7.90
2018-04-02T02:07:19.482Z,7.40
2018-04-02T02:09:47.104Z,7.53
2018-04-02T02:12:14.733Z,10.83
2018-04-02T02:14:42.371Z,8.80
2018-04-02T02:17:09.955Z,9.90
2018-04-02T02:19:37.727Z,10.53
2018-04-02T02:22:05.290Z,9.20
2018-04-02T02:24:32.892Z,7.67
2018-04-02T02:27:01.869Z,9.10
2018-04-02T02:29:30.267Z,6.03
2018-04-02T02:31:57.905Z,6.70
2018-04-02T02:34:26.272Z,6.80
2018-04-02T02:36:53.830Z,11.43
2018-04-02T02:39:21.401Z,9.60
2018-04-02T02:41:49.839Z,9.53
2018-04-02T02:44:17.479Z,7.93
2018-04-02T02:46:45.060Z,8.10
2018-04-02T02:49:12.646Z,8.43
2018-04-02T02:51:40.216Z,8.13
2018-04-02T02:54:07.806Z,8.40
2018-04-02T02:56:35.374Z,8.13
2018-04-02T02:59:02.980Z,7.93
2018-04-02T03:01:30.548Z,9.00
2018-04-02T03:03:58.143Z,8.53
2018-04-02T03:06:25.750Z,8.10
2018-04-02T03:08:54.317Z,10.27
2018-04-02T03:11:22.651Z,8.87
2018-04-02T03:13:50.239Z,8.03
2018-04-02T03:16:17.841Z,9.43
2018-04-02T03:18:45.445Z,8.57
2018-04-02T03:21:13.093Z,8.47
2018-04-02T03:23:40.684Z,7.27
2018-04-02T03:26:08.283Z,7.13
2018-04-02T03:28:35.872Z,7.67
2018-04-02T03:31:03.467Z,7.47
2018-04-02T03:33:32.667Z,14.43
2018-04-02T03:36:01.911Z,7.80
2018-04-02T03:38:31.118Z,9.53
2018-04-02T03:41:00.344Z,7.43
2018-04-02T03:43:29.564Z,9.23
2018-04-02T03:45:58.799Z,7.53
2018-04-02T03:48:28.002Z,8.27
2018-04-02T03:50:57.266Z,7.37
2018-04-02T03:53:26.502Z,8.30
2018-04-02T03:55:55.760Z,11.13
2018-04-02T03:58:25.013Z,13.23
2018-04-02T04:00:54.256Z,9.83
2018-04-02T04:03:21.810Z,7.83
2018-04-02T04:05:49.427Z,9.90
2018-04-02T04:08:17.006Z,7.90
2018-04-02T04:10:44.593Z,8.73
2018-04-02T04:13:12.176Z,8.70
2018-04-02T04:15:39.798Z,7.67
2018-04-02T04:18:07.359Z,10.40
2018-04-02T04:20:34.981Z,8.63
2018-04-02T04:23:03.324Z,10.37
2018-04-02T04:25:30.909Z,8.90
2018-04-02T04:27:59.233Z,7.50
2018-04-02T04:30:33.941Z,7.90
2018-04-02T04:33:01.517Z,8.83
2018-04-02T04:35:29.132Z,9.47
2018-04-02T04:37:56.701Z,10.23
2018-04-02T04:40:24.360Z,8.33
2018-04-02T04:42:52.273Z,7.27
2018-04-02T04:45:19.915Z,9.17
2018-04-02T04:47:47.530Z,9.13
2018-04-02T04:50:15.133Z,9.87
2018-04-02T04:52:42.729Z,10.00
2018-04-02T04:55:10.302Z,9.00
2018-04-02T04:57:37.929Z,8.20
2018-04-02T05:00:05.489Z,8.20
2018-04-02T05:02:33.119Z,9.03
2018-04-02T05:05:00.984Z,7.70
2018-04-02T05:07:29.349Z,9.30
2018-04-02T05:09:57.700Z,9.60
2018-04-02T05:12:25.310Z,10.17
2018-04-02T05:14:52.887Z,7.37
2018-04-02T05:17:20.499Z,8.70
2018-04-02T05:19:48.061Z,8.33
2018-04-02T05:22:15.671Z,8.67
2018-04-02T05:24:43.269Z,13.73
2018-04-02T05:27:10.920Z,7.17
2018-04-02T05:29:38.516Z,8.80
2018-04-02T05:32:06.871Z,10.40
2018-04-02T05:34:34.431Z,7.80
2018-04-02T05:37:03.789Z,11.60
2018-04-02T05:39:31.388Z,8.63
2018-04-02T05:41:59.005Z,10.80
2018-04-02T05:44:26.616Z,8.17
2018-04-02T05:46:54.229Z,8.20
2018-04-02T05:49:21.906Z,7.90
2018-04-02T05:51:49.478Z,9.97
2018-04-02T05:54:17.068Z,10.50
2018-04-02T05:56:44.686Z,9.00
2018-04-02T05:59:12.253Z,7.70
2018-04-02T06:01:39.879Z,8.80
2018-04-02T06:04:08.220Z,11.67
2018-04-02T06:06:35.785Z,9.07
2018-04-02T06:09:03.393Z,8.30
2018-04-02T06:11:31.006Z,8.37
2018-04-02T06:13:58.640Z,11.93
2018-04-02T06:16:26.207Z,10.77
2018-04-02T06:18:53.819Z,9.17
2018-04-02T06:21:21.396Z,9.07
2018-04-02T06:23:48.989Z,8.97
2018-04-02T06:26:16.569Z,14.73
2018-04-02T06:28:44.136Z,13.30
2018-04-02T06:31:11.865Z,10.53
2018-04-02T06:33:39.479Z,10.07
2018-04-02T06:36:07.054Z,11.50
2018-04-02T06:38:35.143Z,15.63
2018-04-02T06:41:02.719Z,13.77
2018-04-02T06:43:30.395Z,12.37
2018-04-02T06:45:57.978Z,13.00
2018-04-02T06:48:26.358Z,11.43
2018-04-02T06:50:53.946Z,12.20
2018-04-02T06:53:21.539Z,15.10
2018-04-02T06:55:49.187Z,14.83
2018-04-02T06:58:16.802Z,14.10
2018-04-02T07:00:45.164Z,16.43
2018-04-02T07:03:12.843Z,12.90
2018-04-02T07:05:41.197Z,14.87
2018-04-02T07:08:08.797Z,12.80
2018-04-02T07:10:40.164Z,13.70
2018-04-02T07:13:07.737Z,15.03
2018-04-02T07:15:35.295Z,12.33
2018-04-02T07:18:02.872Z,14.17
2018-04-02T07:20:30.478Z,14.93
2018-04-02T07:22:58.838Z,16.40
2018-04-02T07:25:27.212Z,15.90
2018-04-02T07:27:54.787Z,14.57
2018-04-02T07:30:23.184Z,11.90
2018-04-02T07:32:51.489Z,11.90
2018-04-02T07:35:19.085Z,11.77
2018-04-02T07:37:47.536Z,8.60
2018-04-02T07:40:15.159Z,8.40
2018-04-02T07:42:43.491Z,10.03
2018-04-02T07:45:11.669Z,9.10
2018-04-02T07:47:39.229Z,9.33
2018-04-02T07:50:06.812Z,8.80
2018-04-02T07:52:34.381Z,8.47
2018-04-02T07:55:02.750Z,6.77
2018-04-02T07:57:31.096Z,8.50
2018-04-02T07:59:58.681Z,9.57
2018-04-02T08:02:26.269Z,7.73
2018-04-02T08:04:54.625Z,8.43
2018-04-02T08:07:22.200Z,8.57
2018-04-02T08:09:50.596Z,7.37
2018-04-02T08:12:18.165Z,11.60
2018-04-02T08:14:45.791Z,8.03
2018-04-02T08:17:14.140Z,10.00
2018-04-02T08:19:41.731Z,7.80
2018-04-02T08:22:10.127Z,11.10
2018-04-02T08:24:37.765Z,8.73
2018-04-02T08:27:05.349Z,8.87
2018-04-02T08:29:32.990Z,6.20
2018-04-02T08:32:01.351Z,5.40
2018-04-02T08:34:28.919Z,8.00
2018-04-02T08:36:57.305Z,5.60
2018-04-02T08:39:25.657Z,7.73
2018-04-02T08:41:53.268Z,4.90
2018-04-02T08:44:20.956Z,5.37
2018-04-02T08:46:48.549Z,8.77
2018-04-02T08:49:16.147Z,8.50
2018-04-02T08:51:43.778Z,5.50
2018-04-02T08:54:11.365Z,6.47
2018-04-02T08:56:39.740Z,5.03
2018-04-02T08:59:08.097Z,5.30
2018-04-02T09:01:35.728Z,4.70
2018-04-02T09:04:03.337Z,4.50
2018-04-02T09:06:31.715Z,4.37
2018-04-02T09:09:00.070Z,5.77
2018-04-02T09:11:27.655Z,3.93
2018-04-02T09:13:56.053Z,4.00
2018-04-02T09:16:24.141Z,6.83
2018-04-02T09:18:51.780Z,4.53
2018-04-02T09:21:19.552Z,3.13
2018-04-02T09:23:47.150Z,4.40
2018-04-02T09:26:14.845Z,7.17
2018-04-02T09:28:43.064Z,4.37
2018-04-02T09:31:10.701Z,3.80
2018-04-02T09:33:39.072Z,4.70
2018-04-02T09:36:07.654Z,6.10
2018-04-02T09:38:35.226Z,6.07
2018-04-02T09:41:05.247Z,4.70
2018-04-02T09:43:33.731Z,4.00
2018-04-02T09:46:02.116Z,5.20
2018-04-02T09:48:29.751Z,3.90
2018-04-02T09:50:57.352Z,3.27
2018-04-02T09:53:24.951Z,3.53
2018-04-02T09:55:52.531Z,4.17
2018-04-02T09:58:20.120Z,5.80
2018-04-02T10:00:48.455Z,4.50
2018-04-02T10:03:16.187Z,4.07
2018-04-02T10:05:43.798Z,3.20
2018-04-02T10:08:11.443Z,4.27
2018-04-02T10:10:39.000Z,3.53
2018-04-02T10:13:06.593Z,4.20
2018-04-02T10:15:34.248Z,4.60
2018-04-02T10:18:01.985Z,5.47
2018-04-02T10:20:29.560Z,4.83
2018-04-02T10:22:58.243Z,5.33
2018-04-02T10:25:25.887Z,4.30
2018-04-02T10:27:53.489Z,3.53
2018-04-02T10:30:21.061Z,3.00
2018-04-02T10:32:48.670Z,5.80
2018-04-02T10:35:16.299Z,3.10
2018-04-02T10:37:43.892Z,3.63
2018-04-02T10:40:11.555Z,4.27
2018-04-02T10:42:39.216Z,3.67
2018-04-02T10:45:06.783Z,3.80
2018-04-02T10:47:34.668Z,2.33
2018-04-02T10:50:02.244Z,2.20
2018-04-02T10:52:30.703Z,3.07
2018-04-02T10:54:58.360Z,4.43
2018-04-02T10:57:26.022Z,2.10
2018-04-02T10:59:53.712Z,2.40
2018-04-02T11:02:21.326Z,2.90
2018-04-02T11:04:48.943Z,4.37
2018-04-02T11:07:16.572Z,3.40
2018-04-02T11:09:44.212Z,3.20
2018-04-02T11:12:11.859Z,2.93
2018-04-02T11:14:40.215Z,3.77
2018-04-02T11:17:07.793Z,6.47
2018-04-02T11:19:36.152Z,4.70
2018-04-02T11:22:03.746Z,4.43
2018-04-02T11:24:31.339Z,2.10
2018-04-02T11:26:59.671Z,3.43
2018-04-02T11:29:27.291Z,12.93
2018-04-02T11:31:54.961Z,5.70
2018-04-02T11:34:23.951Z,6.13
2018-04-02T11:36:51.584Z,2.40
2018-04-02T11:39:19.163Z,3.50
2018-04-02T11:41:46.796Z,3.03
2018-04-02T11:44:14.383Z,2.07
2018-04-02T11:46:42.011Z,3.40
2018-04-02T11:49:09.638Z,3.33
2018-04-02T11:51:37.973Z,4.63
2018-04-02T11:54:05.627Z,1.40
2018-04-02T11:56:33.730Z,4.73
2018-04-02T11:59:01.424Z,1.43
2018-04-02T12:01:28.996Z,3.73
2018-04-02T12:03:56.639Z,2.50
2018-04-02T12:06:24.176Z,4.90
2018-04-02T12:08:51.783Z,1.77
2018-04-02T12:11:20.158Z,4.03
2018-04-02T12:13:47.762Z,4.57
2018-04-02T12:16:15.344Z,1.53
2018-04-02T12:18:42.933Z,1.47
2018-04-02T12:21:10.527Z,2.90
2018-04-02T12:23:39.056Z,3.23
2018-04-02T12:26:06.677Z,1.80
2018-04-02T12:28:35.066Z,3.83
2018-04-02T12:31:02.679Z,1.43
2018-04-02T12:33:31.089Z,2.03
2018-04-02T12:35:58.717Z,1.50
2018-04-02T12:38:26.285Z,2.30
2018-04-02T12:40:53.875Z,3.00
2018-04-02T12:43:22.212Z,1.23
2018-04-02T12:45:50.698Z,1.60
2018-04-02T12:48:19.086Z,1.60
2018-04-02T12:50:46.706Z,1.93
2018-04-02T12:53:15.626Z,1.50
2018-04-02T12:55:44.565Z,2.50
2018-04-02T12:58:12.141Z,1.40
2018-04-02T13:00:39.749Z,1.60
2018-04-02T13:03:07.352Z,1.63
2018-04-02T13:05:34.972Z,2.40
2018-04-02T13:08:03.333Z,4.27
2018-04-02T13:10:30.954Z,1.77
2018-04-02T13:12:58.542Z,3.30
2018-04-02T13:15:27.293Z,2.03
2018-04-02T13:17:55.633Z,2.80
2018-04-02T13:20:23.211Z,1.80
2018-04-02T13:22:50.786Z,1.60
2018-04-02T13:25:19.132Z,1.60
2018-04-02T13:27:46.735Z,2.17
2018-04-02T13:30:14.377Z,2.07
2018-04-02T13:32:42.773Z,1.87
2018-04-02T13:35:11.149Z,3.33
2018-04-02T13:37:40.602Z,3.67
2018-04-02T13:40:08.222Z,1.40
2018-04-02T13:42:35.792Z,3.00
2018-04-02T13:45:06.252Z,1.33
2018-04-02T13:47:33.863Z,1.07
2018-04-02T13:50:01.460Z,2.00
2018-04-02T13:52:29.070Z,2.80
2018-04-02T13:54:57.403Z,1.40
2018-04-02T13:57:25.073Z,1.20
2018-04-02T13:59:52.693Z,4.20
2018-04-02T14:02:20.294Z,1.77
2018-04-02T14:04:47.875Z,1.53
2018-04-02T14:07:16.265Z,1.60
2018-04-02T14:09:44.594Z,5.30
2018-04-02T14:12:12.193Z,1.33
2018-04-02T14:14:39.829Z,2.00
2018-04-02T14:17:07.445Z,3.17
2018-04-02T14:19:35.810Z,2.60
2018-04-02T14:22:04.203Z,1.30
2018-04-02T14:24:32.609Z,1.77
2018-04-02T14:27:00.236Z,2.63
2018-04-02T14:29:30.492Z,3.13
2018-04-02T14:31:58.097Z,1.30
2018-04-02T14:34:25.654Z,2.90
2018-04-02T14:36:53.231Z,1.93
2018-04-02T14:39:21.555Z,1.67
2018-04-02T14:41:49.140Z,1.20
2018-04-02T14:44:17.257Z,2.57
2018-04-02T14:46:45.685Z,2.70
2018-04-02T14:49:13.277Z,2.40
2018-04-02T14:51:40.859Z,2.20
2018-04-02T14:54:09.197Z,1.70
2018-04-02T14:56:36.768Z,1.27
2018-04-02T14:59:04.346Z,1.10
2018-04-02T15:01:32.717Z,1.30
2018-04-02T15:04:01.387Z,2.17
2018-04-02T15:06:28.956Z,1.67
2018-04-02T15:08:56.696Z,3.30
2018-04-02T15:11:24.364Z,1.40
2018-04-02T15:13:52.052Z,4.37
2018-04-02T15:16:20.494Z,2.40
2018-04-02T15:18:48.126Z,2.90
2018-04-02T15:21:15.709Z,3.87
2018-04-02T15:23:44.049Z,1.37
2018-04-02T15:26:11.668Z,1.40
2018-04-02T15:28:39.296Z,1.63
2018-04-02T15:31:07.581Z,3.03
2018-04-02T15:33:35.189Z,1.87
2018-04-02T15:36:02.760Z,2.63
2018-04-02T15:38:30.437Z,3.57
2018-04-02T15:40:58.005Z,1.90
2018-04-02T15:43:25.584Z,1.60
2018-04-02T15:45:53.155Z,2.90
2018-04-02T15:48:20.744Z,1.43
2018-04-02T15:50:48.317Z,1.13
2018-04-02T15:53:17.064Z,1.30
2018-04-02T15:55:45.428Z,1.20
2018-04-02T15:58:13.000Z,1.10
2018-04-02T16:00:41.346Z,1.50
2018-04-02T16:03:08.952Z,1.47
2018-04-02T16:05:38.664Z,1.60
2018-04-02T16:08:06.254Z,2.50
2018-04-02T16:10:33.844Z,1.30
2018-04-02T16:13:02.676Z,2.33
2018-04-02T16:15:30.494Z,1.50
2018-04-02T16:17:58.080Z,1.93
2018-04-02T16:20:26.613Z,2.13
2018-04-02T16:22:54.512Z,1.30
2018-04-02T16:25:22.176Z,1.67
2018-04-02T16:27:49.936Z,1.30
2018-04-02T16:30:17.808Z,1.20
2018-04-02T16:32:45.442Z,1.40
2018-04-02T16:35:13.126Z,1.20
2018-04-02T16:37:41.655Z,1.87
2018-04-02T16:40:09.244Z,1.53
2018-04-02T16:42:37.633Z,1.40
2018-04-02T16:45:05.205Z,2.20
2018-04-02T16:47:32.773Z,2.37
2018-04-02T16:50:00.370Z,2.50
2018-04-02T16:52:28.701Z,2.17
2018-04-02T16:54:56.357Z,3.10
2018-04-02T16:57:23.942Z,1.90
2018-04-02T16:59:51.613Z,4.10
2018-04-02T17:02:20.005Z,3.43
2018-04-02T17:04:48.360Z,2.80
2018-04-02T17:07:15.983Z,5.53
2018-04-02T17:09:43.560Z,2.53
2018-04-02T17:12:11.219Z,2.30
2018-04-02T17:14:38.929Z,4.93
2018-04-02T17:17:07.327Z,5.33
2018-04-02T17:19:34.906Z,2.77
2018-04-02T17:22:07.789Z,2.53
2018-04-02T17:24:35.963Z,1.70
2018-04-02T17:27:03.596Z,5.73
2018-04-02T17:29:35.630Z,2.70
2018-04-02T17:32:03.531Z,2.17
2018-04-02T17:34:31.136Z,1.97
2018-04-02T17:36:59.265Z,5.40
2018-04-02T17:39:27.064Z,1.57
2018-04-02T17:41:54.817Z,2.27
2018-04-02T17:44:22.595Z,3.17
2018-04-02T17:46:50.272Z,2.30
2018-04-02T17:49:17.906Z,1.53
2018-04-02T17:51:45.540Z,2.00
2018-04-02T17:54:13.132Z,2.20
2018-04-02T17:56:40.852Z,1.63
2018-04-02T17:59:08.564Z,2.63
2018-04-02T18:01:36.218Z,2.43
2018-04-02T18:04:04.036Z,2.93
2018-04-02T18:06:31.752Z,2.93
2018-04-02T18:08:59.389Z,3.80
2018-04-02T18:11:26.989Z,4.47
2018-04-02T18:13:55.344Z,4.20
2018-04-02T18:16:23.131Z,3.27
2018-04-02T18:18:51.470Z,2.90
2018-04-02T18:21:19.452Z,6.93
2018-04-02T18:23:47.818Z,3.60
2018-04-02T18:26:16.316Z,5.63
2018-04-02T18:28:44.647Z,3.40
2018-04-02T18:31:12.220Z,2.93
2018-04-02T18:33:39.813Z,3.90
2018-04-02T18:36:07.461Z,2.07
2018-04-02T18:38:35.036Z,2.40
2018-04-02T18:41:02.714Z,2.10
2018-04-02T18:43:30.293Z,2.90
2018-04-02T18:45:58.641Z,1.70
2018-04-02T18:48:26.259Z,2.97
2018-04-02T18:50:54.704Z,2.50
2018-04-02T18:53:22.303Z,2.00
2018-04-02T18:55:49.855Z,2.87
2018-04-02T18:58:17.442Z,7.70
2018-04-02T19:00:45.034Z,2.33
2018-04-02T19:03:12.621Z,5.10
2018-04-02T19:05:41.574Z,2.50
2018-04-02T19:08:09.157Z,4.90
2018-04-02T19:10:37.499Z,4.53
2018-04-02T19:13:05.096Z,10.20
2018-04-02T19:15:33.459Z,7.30
2018-04-02T19:18:01.044Z,7.60
2018-04-02T19:20:29.369Z,7.60
2018-04-02T19:22:56.960Z,5.70
2018-04-02T19:25:24.524Z,4.47
2018-04-02T19:27:52.118Z,4.23
2018-04-02T19:30:19.673Z,3.00
2018-04-02T19:32:48.024Z,3.43
2018-04-02T19:35:15.674Z,2.53
2018-04-02T19:37:43.281Z,1.87
2018-04-02T19:40:10.922Z,2.33
2018-04-02T19:42:39.859Z,1.87
2018-04-02T19:45:07.527Z,3.90
2018-04-02T19:47:35.225Z,2.57
2018-04-02T19:50:03.064Z,2.50
2018-04-02T19:52:30.696Z,4.73
2018-04-02T19:54:59.070Z,4.10
2018-04-02T19:57:26.706Z,2.50
2018-04-02T19:59:54.435Z,2.23
2018-04-02T20:02:22.251Z,3.00
2018-04-02T20:04:49.968Z,4.00
2018-04-02T20:07:17.999Z,2.37
2018-04-02T20:09:45.810Z,2.60
2018-04-02T20:12:13.495Z,1.80
2018-04-02T20:14:41.225Z,1.90
2018-04-02T20:17:08.821Z,2.13
2018-04-02T20:19:36.578Z,2.30
2018-04-02T20:22:04.163Z,1.97
2018-04-02T20:24:31.757Z,2.43
2018-04-02T20:27:00.187Z,7.70
2018-04-02T20:29:27.836Z,5.60
2018-04-02T20:31:55.420Z,5.13
2018-04-02T20:34:23.047Z,3.73
2018-04-02T20:36:50.651Z,3.70
2018-04-02T20:39:18.235Z,3.40
2018-04-02T20:41:46.595Z,3.43
2018-04-02T20:44:14.213Z,2.33
2018-04-02T20:46:41.782Z,2.40
2018-04-02T20:49:09.440Z,2.40
2018-04-02T20:51:37.035Z,1.90
2018-04-02T20:54:04.611Z,4.57
2018-04-02T20:56:32.942Z,6.93
2018-04-02T20:59:00.507Z,2.70
2018-04-02T21:01:28.151Z,2.30
2018-04-02T21:03:55.737Z,2.23
2018-04-02T21:06:23.333Z,5.60
2018-04-02T21:08:51.670Z,2.80
2018-04-02T21:11:19.292Z,5.30
2018-04-02T21:13:46.857Z,3.30
2018-04-02T21:16:14.460Z,3.20
2018-04-02T21:18:43.682Z,2.70
2018-04-02T21:21:12.929Z,2.40
2018-04-02T21:23:42.154Z,5.03
2018-04-02T21:26:11.391Z,2.80
2018-04-02T21:28:40.695Z,3.97
2018-04-02T21:31:09.933Z,5.03
2018-04-02T21:33:39.149Z,4.37
2018-04-02T21:36:08.429Z,4.63
2018-04-02T21:38:37.651Z,2.67
2018-04-02T21:41:06.896Z,5.67
2018-04-02T21:43:36.134Z,3.30
2018-04-02T21:46:05.376Z,5.33
2018-04-02T21:48:34.671Z,2.20
2018-04-02T21:51:03.903Z,3.20
2018-04-02T21:53:33.175Z,1.90
2018-04-02T21:56:02.430Z,2.93
2018-04-02T21:58:31.651Z,2.13
2018-04-02T22:01:00.882Z,4.77
2018-04-02T22:03:30.088Z,2.63
2018-04-02T22:05:59.313Z,6.10
2018-04-02T22:08:28.543Z,7.40
2018-04-02T22:10:57.784Z,2.47
2018-04-02T22:13:27.009Z,4.77
2018-04-02T22:15:56.255Z,5.40
2018-04-02T22:18:25.498Z,5.23
2018-04-02T22:20:54.736Z,4.83
2018-04-02T22:23:23.981Z,2.80
2018-04-02T22:25:53.236Z,2.67
2018-04-02T22:28:22.502Z,2.30
2018-04-02T22:30:51.750Z,3.27
2018-04-02T22:33:20.970Z,3.17
2018-04-02T22:35:50.225Z,3.10
2018-04-02T22:38:19.448Z,2.40
2018-04-02T22:40:48.705Z,1.80
2018-04-02T22:43:17.937Z,2.70
2018-04-02T22:45:47.151Z,2.23
2018-04-02T22:48:16.386Z,3.43
2018-04-02T22:50:45.635Z,5.43
2018-04-02T22:53:14.871Z,4.60
2018-04-02T22:55:44.080Z,3.67
2018-04-02T22:58:13.372Z,2.63
2018-04-02T23:00:42.598Z,2.40
2018-04-02T23:03:11.840Z,2.10
2018-04-02T23:05:41.105Z,5.87
2018-04-02T23:08:10.358Z,2.70
2018-04-02T23:10:39.602Z,6.67
2018-04-02T23:13:08.845Z,2.37
2018-04-02T23:15:39.277Z,4.67
2018-04-02T23:18:08.512Z,3.40
2018-04-02T23:20:37.741Z,2.27
2018-04-02T23:23:06.973Z,2.83
2018-04-02T23:25:36.212Z,2.53
2018-04-02T23:28:05.453Z,2.80
2018-04-02T23:30:34.705Z,2.60
2018-04-02T23:33:03.996Z,2.40
2018-04-02T23:35:33.248Z,3.83
2018-04-02T23:38:02.477Z,4.77
2018-04-02T23:40:31.756Z,2.23
2018-04-02T23:43:00.980Z,1.97
2018-04-02T23:45:30.223Z,2.57
2018-04-02T23:47:59.466Z,5.67
2018-04-02T23:50:28.685Z,3.10
2018-04-02T23:52:57.925Z,3.63
2018-04-02T23:55:27.155Z,4.07
2018-04-02T23:57:56.417Z,3.10
